createdAt,value
2022-10-31T00:01:41.494Z,10.01
2022-10-31T00:04:09.392Z,10.13
2022-10-31T00:06:37.166Z,10.12
2022-10-31T00:09:06.863Z,10.17
2022-10-31T00:11:35.250Z,10.35
2022-10-31T00:14:03.105Z,10.41
2022-10-31T00:16:31.760Z,10.46
2022-10-31T00:19:01.309Z,10.47
2022-10-31T00:21:30.781Z,10.41
2022-10-31T00:23:59.549Z,10.22
2022-10-31T00:26:29.193Z,9.97
2022-10-31T00:28:56.903Z,10.07
2022-10-31T00:31:25.193Z,10.04
2022-10-31T00:33:52.913Z,10.07
2022-10-31T00:36:21.681Z,10.06
2022-10-31T00:38:49.966Z,9.85
2022-10-31T00:41:19.339Z,9.67
2022-10-31T00:43:48.701Z,9.45
2022-10-31T00:46:16.531Z,9.50
2022-10-31T00:48:44.604Z,9.69
2022-10-31T00:51:12.481Z,9.80
2022-10-31T00:53:42.457Z,9.82
2022-10-31T00:56:10.181Z,9.86
2022-10-31T00:58:38.413Z,9.95
2022-10-31T01:01:07.682Z,9.95
2022-10-31T01:03:37.197Z,10.01
2022-10-31T01:06:07.916Z,9.99
2022-10-31T01:08:35.661Z,10.01
2022-10-31T01:11:07.849Z,10.12
2022-10-31T01:13:36.436Z,10.05
2022-10-31T01:16:06.302Z,10.00
2022-10-31T01:18:36.002Z,10.03
2022-10-31T01:21:07.063Z,10.07
2022-10-31T01:23:35.483Z,10.15
2022-10-31T01:26:06.027Z,10.23
2022-10-31T01:28:34.436Z,10.30
2022-10-31T01:31:03.532Z,10.35
2022-10-31T01:33:31.981Z,10.39
2022-10-31T01:36:01.001Z,10.43
2022-10-31T01:38:29.588Z,10.49
2022-10-31T01:40:57.222Z,10.54
2022-10-31T01:43:25.081Z,10.52
2022-10-31T01:45:56.006Z,10.43
2022-10-31T01:48:29.241Z,10.12
2022-10-31T01:50:57.520Z,9.87
2022-10-31T01:53:27.140Z,9.75
2022-10-31T01:55:55.256Z,9.74
2022-10-31T01:58:27.097Z,9.72
2022-10-31T02:01:03.313Z,9.67
2022-10-31T02:03:35.584Z,9.69
2022-10-31T02:06:08.205Z,9.72
2022-10-31T02:08:39.620Z,9.63
2022-10-31T02:11:09.311Z,9.57
2022-10-31T02:13:39.709Z,9.52
2022-10-31T02:16:11.625Z,9.55
2022-10-31T02:18:39.540Z,9.57
2022-10-31T02:21:17.026Z,9.64
2022-10-31T02:24:33.437Z,9.58
2022-10-31T02:27:13.435Z,9.47
2022-10-31T02:30:17.377Z,9.34
2022-10-31T02:33:04.046Z,9.40
2022-10-31T02:35:48.551Z,9.48
2022-10-31T02:38:27.870Z,9.48
2022-10-31T02:41:06.725Z,9.36
2022-10-31T02:43:46.432Z,9.43
2022-10-31T02:46:19.714Z,9.47
2022-10-31T02:48:53.189Z,9.47
2022-10-31T02:51:21.770Z,9.49
2022-10-31T02:53:50.058Z,9.51
2022-10-31T02:56:19.891Z,9.56
2022-10-31T02:58:51.850Z,9.63
2022-10-31T03:01:52.214Z,9.63
2022-10-31T03:05:00.157Z,9.75
2022-10-31T03:07:37.654Z,9.78
2022-10-31T03:10:16.756Z,9.80
2022-10-31T03:12:55.010Z,9.81
2022-10-31T03:15:27.359Z,9.75
2022-10-31T03:18:00.870Z,9.72
2022-10-31T03:20:36.787Z,9.71
2022-10-31T03:23:09.187Z,9.62
2022-10-31T03:25:38.912Z,9.51
2022-10-31T03:28:12.420Z,9.41
2022-10-31T03:30:44.741Z,9.41
2022-10-31T03:33:19.294Z,9.34
2022-10-31T03:35:54.303Z,9.34
2022-10-31T03:38:24.391Z,9.37
2022-10-31T03:40:57.964Z,9.37
2022-10-31T03:43:31.567Z,9.39
2022-10-31T03:45:59.926Z,9.36
2022-10-31T03:48:29.493Z,9.23
2022-10-31T03:51:07.381Z,9.15
2022-10-31T03:53:41.185Z,9.15
2022-10-31T03:56:19.827Z,9.16
2022-10-31T03:58:55.162Z,9.16
2022-10-31T04:01:27.463Z,9.06
2022-10-31T04:03:56.262Z,9.04
2022-10-31T04:06:27.553Z,9.05
2022-10-31T04:08:59.467Z,8.93
2022-10-31T04:11:31.798Z,8.63
2022-10-31T04:14:19.693Z,8.55
2022-10-31T04:16:47.760Z,8.54
2022-10-31T04:19:16.834Z,8.63
2022-10-31T04:21:45.909Z,8.72
2022-10-31T04:24:13.832Z,8.70
2022-10-31T04:26:42.280Z,8.64
2022-10-31T04:29:10.479Z,8.50
2022-10-31T04:31:39.651Z,8.39
2022-10-31T04:34:08.739Z,8.47
2022-10-31T04:36:36.404Z,8.51
2022-10-31T04:39:06.237Z,8.55
2022-10-31T04:41:41.304Z,8.61
2022-10-31T04:44:15.792Z,8.63
2022-10-31T04:46:43.720Z,8.68
2022-10-31T04:49:12.448Z,8.71
2022-10-31T04:51:40.140Z,8.71
2022-10-31T04:54:11.414Z,8.74
2022-10-31T04:56:57.832Z,8.78
2022-10-31T04:59:26.480Z,8.84
2022-10-31T05:01:55.482Z,8.88
2022-10-31T05:04:33.293Z,8.84
2022-10-31T05:07:00.958Z,8.82
2022-10-31T05:09:30.353Z,8.76
2022-10-31T05:11:58.034Z,8.78
2022-10-31T05:14:48.584Z,8.70
2022-10-31T05:17:35.329Z,8.66
2022-10-31T05:20:26.085Z,8.63
2022-10-31T05:23:26.685Z,8.58
2022-10-31T05:25:56.780Z,8.41
2022-10-31T05:28:25.227Z,8.46
2022-10-31T05:30:53.182Z,8.47
2022-10-31T05:33:22.152Z,8.47
2022-10-31T05:36:08.882Z,8.38
2022-10-31T05:38:49.837Z,8.34
2022-10-31T05:41:26.459Z,8.40
2022-10-31T05:44:03.780Z,8.36
2022-10-31T05:49:33.632Z,8.19
2022-10-31T05:52:20.803Z,8.22
2022-10-31T05:54:56.224Z,8.25
2022-10-31T05:57:26.049Z,8.24
2022-10-31T05:59:55.185Z,8.30
2022-10-31T06:02:25.033Z,8.40
2022-10-31T06:05:18.588Z,8.44
2022-10-31T06:07:47.843Z,8.52
2022-10-31T06:10:16.706Z,8.55
2022-10-31T06:12:46.795Z,8.57
2022-10-31T06:15:31.115Z,8.61
2022-10-31T06:18:01.931Z,8.66
2022-10-31T06:20:34.428Z,8.70
2022-10-31T06:23:05.882Z,8.68
2022-10-31T06:25:35.002Z,8.70
2022-10-31T06:28:07.275Z,8.74
2022-10-31T06:30:54.312Z,8.76
2022-10-31T06:33:22.871Z,8.81
2022-10-31T06:35:58.945Z,8.85
2022-10-31T06:38:28.349Z,8.94
2022-10-31T06:40:56.856Z,9.04
2022-10-31T06:43:29.166Z,9.13
2022-10-31T06:46:24.545Z,9.26
2022-10-31T06:49:12.833Z,9.32
2022-10-31T06:51:51.039Z,9.39
2022-10-31T06:54:19.678Z,9.49
2022-10-31T06:56:48.144Z,9.59
2022-10-31T06:59:17.751Z,9.72
2022-10-31T07:02:14.004Z,9.85
2022-10-31T07:04:44.204Z,10.00
2022-10-31T07:07:15.284Z,10.14
2022-10-31T07:09:42.983Z,10.27
2022-10-31T07:12:12.500Z,10.42
2022-10-31T07:14:47.088Z,10.61
2022-10-31T07:17:14.762Z,10.77
2022-10-31T07:19:45.456Z,10.94
2022-10-31T07:22:15.093Z,11.11
2022-10-31T07:24:44.952Z,11.31
2022-10-31T07:27:41.726Z,11.53
2022-10-31T07:30:14.825Z,11.72
2022-10-31T07:32:44.157Z,11.88
2022-10-31T07:35:15.900Z,12.04
2022-10-31T07:37:48.718Z,12.19
2022-10-31T07:40:18.241Z,12.36
2022-10-31T07:42:47.582Z,12.62
2022-10-31T07:45:36.560Z,12.84
2022-10-31T07:48:22.985Z,13.00
2022-10-31T07:51:09.957Z,13.26
2022-10-31T07:53:56.111Z,13.37
2022-10-31T07:56:26.992Z,13.50
2022-10-31T07:58:54.893Z,13.63
2022-10-31T08:01:24.549Z,13.75
2022-10-31T08:04:12.140Z,13.89
2022-10-31T08:07:06.768Z,14.06
2022-10-31T08:09:37.464Z,14.13
2022-10-31T08:12:15.837Z,14.19
2022-10-31T08:14:43.735Z,14.23
2022-10-31T08:17:13.658Z,14.31
2022-10-31T08:19:51.746Z,14.54
2022-10-31T08:22:22.936Z,14.95
2022-10-31T08:24:53.189Z,15.08
2022-10-31T08:27:21.830Z,15.01
2022-10-31T08:29:49.557Z,14.92
2022-10-31T08:32:18.565Z,15.01
2022-10-31T08:35:05.531Z,15.44
2022-10-31T08:37:54.316Z,16.16
2022-10-31T08:40:22.026Z,16.72
2022-10-31T08:42:58.399Z,17.22
2022-10-31T08:45:26.182Z,17.76
2022-10-31T08:47:59.346Z,18.29
2022-10-31T08:50:28.654Z,18.47
2022-10-31T08:53:05.651Z,18.85
2022-10-31T08:55:36.379Z,19.29
2022-10-31T08:58:08.954Z,19.54
2022-10-31T09:00:46.329Z,19.59
2022-10-31T09:03:23.623Z,19.93
2022-10-31T09:05:52.964Z,20.27
2022-10-31T09:08:20.684Z,20.50
2022-10-31T09:10:49.563Z,20.91
2022-10-31T09:13:27.847Z,21.32
2022-10-31T09:16:19.261Z,21.91
2022-10-31T09:18:48.389Z,22.25
2022-10-31T09:21:18.060Z,22.67
2022-10-31T09:23:48.300Z,22.96
2022-10-31T09:26:16.863Z,23.20
2022-10-31T09:28:58.574Z,23.13
2022-10-31T09:31:27.021Z,23.12
2022-10-31T09:34:08.581Z,23.16
2022-10-31T09:36:36.711Z,23.10
2022-10-31T09:39:05.844Z,22.77
2022-10-31T09:41:57.161Z,22.34
2022-10-31T09:44:40.997Z,22.05
2022-10-31T09:47:21.938Z,21.86
2022-10-31T09:50:16.419Z,21.80
2022-10-31T09:52:53.195Z,21.78
2022-10-31T09:55:27.369Z,21.73
2022-10-31T09:57:55.585Z,21.72
2022-10-31T10:00:24.484Z,22.18
2022-10-31T10:02:58.935Z,22.92
2022-10-31T10:05:35.208Z,23.45
2022-10-31T10:08:13.584Z,23.79
2022-10-31T10:11:14.207Z,24.37
2022-10-31T10:14:09.964Z,24.28
2022-10-31T10:16:58.327Z,24.23
2022-10-31T10:19:41.099Z,23.94
2022-10-31T10:22:17.821Z,23.91
2022-10-31T10:25:04.071Z,24.39
2022-10-31T10:27:45.074Z,25.01
2022-10-31T10:30:17.103Z,25.01
2022-10-31T10:32:51.084Z,25.15
2022-10-31T10:35:27.836Z,25.53
2022-10-31T10:38:01.251Z,25.69
2022-10-31T10:40:30.100Z,25.61
2022-10-31T10:43:22.884Z,25.92
2022-10-31T10:46:26.005Z,26.26
2022-10-31T10:49:01.202Z,26.07
2022-10-31T10:51:58.207Z,25.56
2022-10-31T10:55:02.338Z,24.96
2022-10-31T10:57:40.641Z,24.48
2022-10-31T11:00:19.944Z,23.97
2022-10-31T11:02:49.166Z,23.53
2022-10-31T11:05:25.971Z,23.26
2022-10-31T11:07:54.051Z,23.15
2022-10-31T11:10:23.100Z,23.09
2022-10-31T11:13:04.177Z,23.15
2022-10-31T11:15:35.771Z,23.17
2022-10-31T11:18:03.754Z,22.93
2022-10-31T11:20:35.445Z,22.71
2022-10-31T11:23:20.172Z,22.51
2022-10-31T11:25:55.855Z,22.43
2022-10-31T11:28:24.286Z,22.35
2022-10-31T11:30:54.863Z,22.31
2022-10-31T11:33:29.001Z,22.35
2022-10-31T11:35:58.428Z,22.36
2022-10-31T11:38:32.247Z,22.43
2022-10-31T11:41:07.473Z,22.47
2022-10-31T11:43:35.603Z,22.47
2022-10-31T11:46:11.423Z,22.83
2022-10-31T11:48:40.336Z,22.94
2022-10-31T11:51:09.326Z,22.98
2022-10-31T11:53:37.235Z,23.19
2022-10-31T11:56:12.468Z,23.36
2022-10-31T11:58:41.519Z,23.53
2022-10-31T12:01:25.715Z,23.88
2022-10-31T12:04:01.135Z,24.31
2022-10-31T12:06:33.601Z,24.64
2022-10-31T12:09:02.409Z,24.98
2022-10-31T12:11:45.044Z,25.21
2022-10-31T12:14:24.987Z,25.28
2022-10-31T12:16:57.908Z,25.03
2022-10-31T12:19:35.654Z,24.68
2022-10-31T12:22:10.773Z,24.46
2022-10-31T12:24:50.434Z,24.26
2022-10-31T12:27:30.785Z,24.00
2022-10-31T12:30:17.473Z,23.62
2022-10-31T12:33:04.004Z,23.35
2022-10-31T12:35:42.487Z,23.24
2022-10-31T12:38:39.560Z,23.22
2022-10-31T12:41:23.056Z,23.19
2022-10-31T12:43:59.204Z,23.06
2022-10-31T12:46:37.955Z,22.92
2022-10-31T12:49:19.412Z,22.73
2022-10-31T12:51:58.908Z,22.51
2022-10-31T12:54:48.286Z,22.36
2022-10-31T12:57:25.660Z,22.20
2022-10-31T13:00:02.075Z,22.01
2022-10-31T13:02:33.342Z,21.88
2022-10-31T13:05:05.016Z,21.79
2022-10-31T13:07:39.642Z,21.69
2022-10-31T13:10:18.356Z,21.69
2022-10-31T13:12:49.169Z,21.74
2022-10-31T13:15:21.048Z,21.79
2022-10-31T13:17:53.694Z,21.86
2022-10-31T13:20:27.646Z,22.02
2022-10-31T13:23:05.308Z,22.10
2022-10-31T13:25:45.241Z,22.13
2022-10-31T13:28:27.754Z,22.08
2022-10-31T13:30:56.790Z,22.08
2022-10-31T13:33:30.780Z,22.15
2022-10-31T13:36:13.799Z,22.11
2022-10-31T13:38:48.964Z,21.97
2022-10-31T13:41:31.961Z,21.85
2022-10-31T13:44:04.243Z,21.67
2022-10-31T13:46:40.642Z,21.53
2022-10-31T13:49:28.360Z,21.40
2022-10-31T13:52:08.200Z,21.25
2022-10-31T13:54:38.093Z,21.19
2022-10-31T13:57:09.458Z,21.14
2022-10-31T13:59:40.068Z,21.08
2022-10-31T14:02:17.200Z,20.99
2022-10-31T14:04:49.424Z,20.99
2022-10-31T14:07:19.755Z,20.93
2022-10-31T14:09:56.731Z,20.89
2022-10-31T14:12:29.117Z,20.88
2022-10-31T14:15:00.935Z,20.87
2022-10-31T14:17:41.999Z,20.88
2022-10-31T14:20:36.010Z,20.90
2022-10-31T14:23:45.484Z,20.88
2022-10-31T14:26:32.202Z,20.85
2022-10-31T14:29:01.844Z,20.80
2022-10-31T14:31:40.435Z,20.84
2022-10-31T14:34:24.500Z,20.87
2022-10-31T14:37:04.399Z,20.91
2022-10-31T14:39:38.310Z,21.02
2022-10-31T14:42:27.401Z,21.08
2022-10-31T14:45:12.069Z,21.06
2022-10-31T14:47:47.145Z,20.97
2022-10-31T14:50:33.724Z,20.88
2022-10-31T14:53:05.700Z,20.84
2022-10-31T14:55:34.268Z,20.85
2022-10-31T14:58:05.177Z,20.86
2022-10-31T15:00:35.441Z,20.92
2022-10-31T15:03:13.633Z,20.89
2022-10-31T15:05:50.223Z,20.79
2022-10-31T15:08:32.057Z,20.71
2022-10-31T15:10:59.833Z,20.65
2022-10-31T15:13:27.731Z,20.62
2022-10-31T15:15:57.324Z,20.57
2022-10-31T15:18:27.322Z,20.57
2022-10-31T15:20:58.413Z,20.54
2022-10-31T15:23:28.134Z,20.51
2022-10-31T15:26:01.600Z,20.43
2022-10-31T15:28:30.094Z,20.35
2022-10-31T15:30:59.293Z,20.25
2022-10-31T15:33:36.549Z,20.11
2022-10-31T15:36:07.775Z,20.03
2022-10-31T15:38:35.845Z,19.85
2022-10-31T15:41:06.748Z,19.70
2022-10-31T15:43:37.780Z,19.53
2022-10-31T15:46:09.386Z,19.39
2022-10-31T15:48:38.224Z,19.24
2022-10-31T15:51:07.580Z,19.06
2022-10-31T15:53:44.168Z,18.89
2022-10-31T15:56:15.124Z,18.73
2022-10-31T15:58:45.902Z,18.54
2022-10-31T16:01:23.716Z,18.40
2022-10-31T16:04:03.434Z,18.23
2022-10-31T16:06:33.764Z,18.04
2022-10-31T16:09:01.819Z,17.90
2022-10-31T16:11:37.198Z,17.80
2022-10-31T16:14:09.587Z,17.64
2022-10-31T16:16:44.348Z,17.55
2022-10-31T16:19:26.474Z,17.41
2022-10-31T16:21:57.676Z,17.29
2022-10-31T16:24:29.640Z,17.19
2022-10-31T16:27:03.799Z,17.07
2022-10-31T16:29:37.916Z,16.94
2022-10-31T16:32:06.283Z,16.84
2022-10-31T16:34:34.209Z,16.73
2022-10-31T16:37:03.887Z,16.66
2022-10-31T16:39:32.174Z,16.59
2022-10-31T16:41:59.860Z,16.52
2022-10-31T16:44:28.424Z,16.43
2022-10-31T16:47:10.966Z,16.33
2022-10-31T16:49:39.163Z,16.27
2022-10-31T16:52:08.181Z,16.21
2022-10-31T16:54:36.507Z,16.14
2022-10-31T16:57:06.469Z,16.04
2022-10-31T16:59:34.872Z,15.96
2022-10-31T17:02:04.946Z,15.89
2022-10-31T17:04:32.753Z,15.84
2022-10-31T17:07:00.413Z,15.76
2022-10-31T17:09:29.824Z,15.59
2022-10-31T17:11:57.813Z,15.49
2022-10-31T17:14:25.956Z,15.43
2022-10-31T17:16:53.630Z,15.32
2022-10-31T17:19:21.691Z,15.23
2022-10-31T17:21:49.391Z,14.76
2022-10-31T17:24:17.499Z,14.51
2022-10-31T17:26:47.166Z,14.87
2022-10-31T17:29:15.647Z,14.88
2022-10-31T17:31:43.644Z,14.79
2022-10-31T17:34:11.601Z,14.62
2022-10-31T17:36:39.259Z,14.39
2022-10-31T17:39:09.892Z,14.28
2022-10-31T17:41:37.523Z,14.22
2022-10-31T17:44:07.760Z,14.19
2022-10-31T17:46:35.420Z,14.04
2022-10-31T17:49:05.335Z,13.99
2022-10-31T17:51:32.979Z,13.93
2022-10-31T17:54:01.221Z,13.82
2022-10-31T17:56:28.867Z,13.72
2022-10-31T17:58:58.237Z,13.68
2022-10-31T18:01:27.443Z,13.61
2022-10-31T18:03:55.650Z,13.50
2022-10-31T18:06:23.261Z,13.40
2022-10-31T18:08:51.167Z,13.41
2022-10-31T18:11:22.005Z,13.23
2022-10-31T18:13:56.472Z,13.26
2022-10-31T18:16:24.438Z,13.30
2022-10-31T18:18:56.336Z,13.27
2022-10-31T18:21:23.987Z,13.05
2022-10-31T18:23:55.464Z,13.03
2022-10-31T18:26:23.522Z,13.00
2022-10-31T18:28:51.888Z,13.04
2022-10-31T18:31:20.150Z,13.02
2022-10-31T18:33:48.482Z,13.01
2022-10-31T18:36:17.516Z,12.97
2022-10-31T18:38:46.219Z,12.97
2022-10-31T18:41:15.118Z,13.04
2022-10-31T18:43:43.273Z,13.07
2022-10-31T18:46:13.977Z,13.08
2022-10-31T18:48:42.770Z,13.06
2022-10-31T18:51:13.268Z,13.08
2022-10-31T18:53:42.906Z,13.02
2022-10-31T18:56:12.254Z,12.94
2022-10-31T18:58:40.309Z,12.93
2022-10-31T19:01:08.913Z,12.98
2022-10-31T19:03:37.616Z,12.94
2022-10-31T19:06:07.237Z,12.93
2022-10-31T19:08:35.268Z,12.88
2022-10-31T19:11:09.247Z,12.88
2022-10-31T19:13:37.701Z,12.87
2022-10-31T19:16:07.581Z,12.85
2022-10-31T19:18:35.410Z,12.84
2022-10-31T19:21:07.044Z,12.78
2022-10-31T19:23:34.732Z,12.75
2022-10-31T19:26:03.166Z,12.66
2022-10-31T19:28:34.063Z,12.64
2022-10-31T19:31:02.366Z,12.55
2022-10-31T19:33:34.993Z,12.29
2022-10-31T19:36:08.508Z,12.26
2022-10-31T19:38:36.687Z,12.24
2022-10-31T19:41:06.682Z,12.09
2022-10-31T19:43:36.039Z,12.08
2022-10-31T19:46:05.816Z,12.07
2022-10-31T19:48:37.021Z,12.09
2022-10-31T19:51:08.848Z,12.13
2022-10-31T19:53:37.176Z,12.15
2022-10-31T19:56:06.029Z,12.15
2022-10-31T19:58:35.003Z,12.13
2022-10-31T20:01:08.397Z,12.07
2022-10-31T20:03:37.265Z,11.96
2022-10-31T20:06:05.666Z,11.98
2022-10-31T20:08:39.499Z,12.00
2022-10-31T20:11:07.737Z,12.03
2022-10-31T20:13:36.745Z,12.02
2022-10-31T20:16:08.103Z,12.06
2022-10-31T20:18:36.696Z,12.09
2022-10-31T20:21:06.278Z,12.15
2022-10-31T20:23:34.334Z,12.21
2022-10-31T20:26:02.453Z,12.31
2022-10-31T20:28:32.018Z,12.34
2022-10-31T20:31:01.983Z,12.38
2022-10-31T20:33:29.671Z,12.41
2022-10-31T20:35:57.396Z,12.41
2022-10-31T20:38:25.267Z,12.45
2022-10-31T20:40:53.495Z,12.31
2022-10-31T20:43:21.156Z,12.30
2022-10-31T20:45:49.206Z,12.25
2022-10-31T20:48:19.919Z,12.20
2022-10-31T20:50:47.572Z,12.17
2022-10-31T20:53:15.205Z,11.96
2022-10-31T20:55:43.057Z,11.95
2022-10-31T20:58:10.785Z,11.92
2022-10-31T21:00:38.807Z,11.84
2022-10-31T21:03:06.568Z,11.88
2022-10-31T21:05:35.898Z,11.89
2022-10-31T21:08:03.571Z,11.95
2022-10-31T21:10:31.253Z,11.97
2022-10-31T21:12:59.121Z,11.91
2022-10-31T21:15:27.012Z,11.86
2022-10-31T21:17:55.646Z,11.81
2022-10-31T21:20:23.740Z,11.72
2022-10-31T21:22:54.461Z,11.63
2022-10-31T21:25:22.432Z,11.53
2022-10-31T21:27:50.081Z,11.47
2022-10-31T21:30:18.195Z,11.38
2022-10-31T21:32:45.895Z,11.30
2022-10-31T21:35:13.912Z,11.26
2022-10-31T21:37:41.532Z,11.16
2022-10-31T21:40:12.138Z,11.09
2022-10-31T21:42:39.800Z,10.79
2022-10-31T21:45:08.737Z,10.79
2022-10-31T21:47:36.408Z,10.75
2022-10-31T21:50:04.727Z,10.50
2022-10-31T21:52:32.475Z,10.68
2022-10-31T21:54:59.149Z,10.49
2022-10-31T21:57:28.113Z,10.52
2022-10-31T21:59:55.742Z,10.54
2022-10-31T22:02:23.386Z,10.60
2022-10-31T22:04:51.827Z,10.64
2022-10-31T22:07:19.906Z,10.71
2022-10-31T22:09:48.112Z,10.76
2022-10-31T22:12:15.968Z,10.91
2022-10-31T22:14:45.167Z,11.07
2022-10-31T22:17:12.770Z,11.15
2022-10-31T22:19:40.492Z,11.24
2022-10-31T22:22:08.143Z,11.28
2022-10-31T22:24:36.130Z,11.23
2022-10-31T22:27:03.770Z,11.11
2022-10-31T22:29:31.445Z,11.16
2022-10-31T22:32:01.978Z,11.06
2022-10-31T22:34:30.569Z,10.93
2022-10-31T22:36:58.316Z,10.24
2022-10-31T22:39:26.047Z,9.72
2022-10-31T22:41:53.757Z,10.10
2022-10-31T22:44:21.738Z,10.06
2022-10-31T22:46:49.363Z,10.15
2022-10-31T22:49:19.106Z,10.26
2022-10-31T22:51:47.047Z,10.31
2022-10-31T22:54:17.453Z,10.56
2022-10-31T22:56:45.987Z,10.88
2022-10-31T22:59:15.002Z,11.08
2022-10-31T23:01:45.144Z,11.33
2022-10-31T23:04:13.507Z,11.58
2022-10-31T23:06:43.253Z,11.78
2022-10-31T23:09:15.055Z,11.82
2022-10-31T23:11:44.095Z,11.95
2022-10-31T23:14:14.252Z,11.94
2022-10-31T23:16:46.170Z,11.97
2022-10-31T23:19:16.375Z,12.12
2022-10-31T23:21:59.478Z,12.36
2022-10-31T23:24:36.203Z,12.60
2022-10-31T23:27:11.026Z,12.76
2022-10-31T23:29:45.446Z,12.89
2022-10-31T23:32:17.912Z,13.03
2022-10-31T23:34:47.081Z,13.24
2022-10-31T23:37:17.232Z,13.37
2022-10-31T23:39:45.693Z,13.56
2022-10-31T23:42:13.731Z,13.58
2022-10-31T23:44:41.517Z,13.71
2022-10-31T23:47:09.819Z,13.77
2022-10-31T23:49:38.125Z,13.70
2022-10-31T23:52:06.762Z,13.60
2022-10-31T23:54:36.712Z,13.57
2022-10-31T23:57:04.920Z,13.54
2022-10-31T23:59:32.993Z,13.44
